Time;durP1;ratioP1;P1;durP2;ratioP2;P2;SDS_P1;SDS_P2;PMS_P1;PMS_P2;Temp;Humidity;BMP_temperature;BMP_pressure;BME280_temperature;BME280_humidity;BME280_pressure;Samples;Min_cycle;Max_cycle;Signal;HPM_P1;HPM_P2
2020/12/02 00:00:15;;;;;;;7.05;1.60;;;;;;;;;;5073249;28;20108;-68
2020/12/02 00:02:56;;;;;;;6.80;2.25;;;;;;;;;;5073458;28;20098;-68
2020/12/02 00:05:22;;;;;;;6.20;2.10;;;;;;;;;;5073102;28;20020;-69
2020/12/02 00:07:51;;;;;;;2.80;0.90;;;;;;;;;;5071659;28;20025;-68
2020/12/02 00:10:18;;;;;;;3.05;1.35;;;;;;;;;;5072893;28;20031;-69
2020/12/02 00:12:44;;;;;;;5.80;1.92;;;;;;;;;;5072775;28;20039;-69
2020/12/02 00:15:10;;;;;;;3.65;1.10;;;;;;;;;;5073052;28;20489;-68
2020/12/02 00:17:37;;;;;;;8.07;1.50;;;;;;;;;;5072677;28;20021;-68
2020/12/02 00:20:05;;;;;;;7.72;2.95;;;;;;;;;;5072570;28;20483;-69
2020/12/02 00:22:31;;;;;;;6.22;1.77;;;;;;;;;;5072261;28;20028;-75
2020/12/02 00:24:57;;;;;;;3.35;1.73;;;;;;;;;;5071964;28;20492;-71
2020/12/02 00:27:27;;;;;;;6.53;2.30;;;;;;;;;;5072533;28;20029;-72
2020/12/02 00:29:53;;;;;;;6.68;2.17;;;;;;;;;;5072354;28;20028;-70
2020/12/02 00:32:28;;;;;;;3.65;1.55;;;;;;;;;;5072704;28;20036;-71
2020/12/02 00:34:54;;;;;;;5.20;1.83;;;;;;;;;;5072322;28;20118;-70
2020/12/02 00:37:20;;;;;;;6.78;2.70;;;;;;;;;;5072398;28;20074;-70
2020/12/02 00:39:46;;;;;;;5.15;2.08;;;;;;;;;;5072395;28;20024;-71
2020/12/02 00:42:13;;;;;;;5.18;1.92;;;;;;;;;;5072492;28;20070;-69
2020/12/02 00:44:39;;;;;;;6.15;2.35;;;;;;;;;;5071750;28;20032;-70
2020/12/02 00:47:09;;;;;;;5.15;2.05;;;;;;;;;;5072169;28;20040;-71
2020/12/02 00:49:35;;;;;;;6.43;2.40;;;;;;;;;;5070038;28;20032;-71
2020/12/02 00:52:01;;;;;;;6.55;2.00;;;;;;;;;;5071494;28;20032;-69
2020/12/02 00:54:27;;;;;;;7.05;2.30;;;;;;;;;;5071127;28;20029;-68
2020/12/02 00:56:53;;;;;;;4.78;1.95;;;;;;;;;;5071142;28;20432;-68
2020/12/02 00:59:26;;;;;;;6.15;2.22;;;;;;;;;;5072350;28;20077;-69
2020/12/02 01:01:52;;;;;;;5.30;2.15;;;;;;;;;;5071767;28;20392;-68
2020/12/02 01:04:21;;;;;;;6.10;2.45;;;;;;;;;;5070399;28;20029;-68
2020/12/02 01:06:49;;;;;;;7.78;2.00;;;;;;;;;;5070683;28;20025;-70
2020/12/02 01:09:15;;;;;;;8.20;2.75;;;;;;;;;;5072342;28;20112;-69
2020/12/02 01:11:43;;;;;;;6.63;2.00;;;;;;;;;;5072648;28;20020;-71
2020/12/02 01:14:11;;;;;;;6.85;2.25;;;;;;;;;;5072199;28;20438;-69
2020/12/02 01:16:42;;;;;;;6.05;2.05;;;;;;;;;;5071457;28;20039;-69
2020/12/02 01:19:15;;;;;;;3.45;1.33;;;;;;;;;;5069616;28;20016;-68
2020/12/02 01:21:51;;;;;;;4.18;2.03;;;;;;;;;;5071350;28;20048;-69
2020/12/02 01:24:19;;;;;;;3.47;1.38;;;;;;;;;;5070735;28;20028;-67
2020/12/02 01:26:49;;;;;;;5.60;1.70;;;;;;;;;;5070111;28;20048;-71
2020/12/02 01:29:17;;;;;;;6.70;1.85;;;;;;;;;;5071890;28;20078;-70
2020/12/02 01:31:48;;;;;;;5.88;1.58;;;;;;;;;;5071613;28;20017;-70
2020/12/02 01:34:15;;;;;;;6.05;1.95;;;;;;;;;;5072074;28;20078;-70
2020/12/02 01:36:53;;;;;;;5.60;1.50;;;;;;;;;;5073195;28;20036;-68
2020/12/02 01:39:19;;;;;;;3.20;1.60;;;;;;;;;;5075978;28;20106;-68
2020/12/02 01:41:45;;;;;;;4.63;1.50;;;;;;;;;;5076047;28;20257;-67
2020/12/02 01:44:11;;;;;;;4.45;1.67;;;;;;;;;;5075679;28;20472;-68
2020/12/02 01:46:47;;;;;;;6.22;1.50;;;;;;;;;;5073427;28;20029;-68
2020/12/02 01:49:28;;;;;;;4.97;1.60;;;;;;;;;;5072788;28;20032;-68
2020/12/02 01:52:20;;;;;;;4.35;1.85;;;;;;;;;;5072508;28;20537;-67
2020/12/02 01:54:47;;;;;;;3.15;1.80;;;;;;;;;;5072386;28;20024;-69
2020/12/02 01:57:19;;;;;;;5.20;1.77;;;;;;;;;;5073196;28;20036;-67
2020/12/02 01:59:52;;;;;;;5.18;1.50;;;;;;;;;;5089709;22;20615;-61
2020/12/02 02:02:25;;;;;;;4.25;1.15;;;;;;;;;;5075298;28;20025;-61
2020/12/02 02:04:51;;;;;;;3.97;1.33;;;;;;;;;;5074095;28;20522;-63
2020/12/02 02:07:20;;;;;;;3.90;1.67;;;;;;;;;;5074182;28;20025;-62
2020/12/02 02:09:55;;;;;;;3.80;1.23;;;;;;;;;;5073629;28;20051;-62
2020/12/02 02:12:24;;;;;;;6.70;1.73;;;;;;;;;;5074539;28;20024;-62
2020/12/02 02:14:59;;;;;;;3.65;1.80;;;;;;;;;;5074683;28;20035;-61
2020/12/02 02:17:25;;;;;;;3.50;0.82;;;;;;;;;;5074712;28;20021;-63
2020/12/02 02:19:51;;;;;;;4.65;1.20;;;;;;;;;;5074352;28;20020;-68
2020/12/02 02:22:17;;;;;;;2.95;1.20;;;;;;;;;;5074740;28;20081;-63
2020/12/02 02:24:45;;;;;;;3.97;1.10;;;;;;;;;;5074140;28;20105;-63
2020/12/02 02:27:12;;;;;;;5.77;1.63;;;;;;;;;;5074982;28;20027;-62
2020/12/02 02:29:39;;;;;;;7.25;1.90;;;;;;;;;;5075154;28;20036;-65
2020/12/02 02:32:13;;;;;;;4.20;1.40;;;;;;;;;;5075059;28;20021;-63
2020/12/02 02:34:41;;;;;;;3.72;1.35;;;;;;;;;;5074484;28;20112;-63
2020/12/02 02:37:10;;;;;;;4.72;1.60;;;;;;;;;;5074921;28;20094;-62
2020/12/02 02:39:36;;;;;;;4.93;1.50;;;;;;;;;;5075771;28;20052;-64
2020/12/02 02:42:04;;;;;;;3.25;1.38;;;;;;;;;;5076226;28;20040;-62
2020/12/02 02:44:30;;;;;;;5.10;1.38;;;;;;;;;;5076898;28;20062;-62
2020/12/02 02:46:57;;;;;;;2.35;1.10;;;;;;;;;;5077062;28;20537;-62
2020/12/02 02:49:24;;;;;;;3.88;1.30;;;;;;;;;;5078895;28;20020;-63
2020/12/02 02:51:50;;;;;;;4.88;1.50;;;;;;;;;;5079093;28;20479;-63
2020/12/02 02:54:17;;;;;;;3.55;1.13;;;;;;;;;;5077044;28;20036;-61
2020/12/02 02:56:43;;;;;;;3.53;1.20;;;;;;;;;;5077437;28;20125;-63
2020/12/02 03:01:46;;;;;;;6.40;1.35;;;;;;;;;;5032076;28;20501;-68
2020/12/02 03:04:12;;;;;;;4.10;1.45;;;;;;;;;;5032754;28;20276;-66
2020/12/02 03:06:39;;;;;;;4.82;0.93;;;;;;;;;;5034364;28;20034;-65
2020/12/02 03:09:06;;;;;;;2.20;1.15;;;;;;;;;;5033943;28;20036;-66
2020/12/02 03:11:32;;;;;;;5.05;1.20;;;;;;;;;;5034341;28;20056;-67
2020/12/02 03:13:59;;;;;;;3.92;1.52;;;;;;;;;;5033875;28;20032;-67
2020/12/02 03:16:41;;;;;;;3.75;1.23;;;;;;;;;;5031734;28;20037;-66
2020/12/02 03:19:39;;;;;;;3.33;1.35;;;;;;;;;;5032932;28;20547;-66
2020/12/02 03:22:09;;;;;;;4.05;1.95;;;;;;;;;;4988378;28;20036;-66
2020/12/02 03:24:36;;;;;;;4.53;1.40;;;;;;;;;;5033603;28;20029;-66
2020/12/02 03:27:02;;;;;;;2.83;1.30;;;;;;;;;;5033894;28;20045;-65
2020/12/02 03:29:28;;;;;;;5.90;1.50;;;;;;;;;;5033502;28;20507;-67
2020/12/02 03:31:55;;;;;;;3.97;1.50;;;;;;;;;;5033187;28;20032;-68
2020/12/02 03:34:21;;;;;;;3.22;1.38;;;;;;;;;;5033311;28;20029;-67
2020/12/02 03:36:48;;;;;;;5.65;2.50;;;;;;;;;;5033442;28;20021;-68
2020/12/02 03:39:14;;;;;;;4.43;1.35;;;;;;;;;;5033328;28;20028;-67
2020/12/02 03:41:41;;;;;;;2.88;1.20;;;;;;;;;;5033546;28;20033;-66
2020/12/02 03:44:07;;;;;;;3.80;1.75;;;;;;;;;;5033101;28;20389;-68
2020/12/02 03:46:34;;;;;;;3.88;1.23;;;;;;;;;;5032438;28;20036;-69
2020/12/02 03:49:02;;;;;;;4.03;1.85;;;;;;;;;;5032889;28;20024;-69
2020/12/02 03:51:28;;;;;;;3.88;1.90;;;;;;;;;;5032370;28;20452;-67
2020/12/02 03:53:54;;;;;;;5.40;1.33;;;;;;;;;;5032271;28;20052;-67
2020/12/02 03:56:21;;;;;;;5.18;1.73;;;;;;;;;;5033448;28;20041;-68
2020/12/02 03:58:47;;;;;;;3.05;1.67;;;;;;;;;;5031283;28;20021;-68
2020/12/02 04:01:14;;;;;;;3.40;1.63;;;;;;;;;;5031969;28;20049;-68
2020/12/02 04:03:40;;;;;;;2.35;1.23;;;;;;;;;;5031874;28;20424;-66
2020/12/02 04:06:07;;;;;;;4.32;1.75;;;;;;;;;;5031328;28;20029;-67
2020/12/02 04:08:33;;;;;;;3.90;1.00;;;;;;;;;;5032068;28;20394;-67
2020/12/02 04:10:59;;;;;;;2.50;1.30;;;;;;;;;;5032199;28;20021;-68
2020/12/02 04:13:25;;;;;;;3.40;1.35;;;;;;;;;;5033309;28;20068;-67
2020/12/02 04:15:51;;;;;;;3.08;1.40;;;;;;;;;;5031803;28;20124;-68
2020/12/02 04:18:17;;;;;;;3.45;1.20;;;;;;;;;;5032478;28;20121;-68
2020/12/02 04:20:43;;;;;;;3.47;1.48;;;;;;;;;;5032825;28;20037;-68
2020/12/02 04:23:09;;;;;;;3.90;1.55;;;;;;;;;;5031450;28;20021;-69
2020/12/02 04:25:36;;;;;;;6.63;1.77;;;;;;;;;;5031625;28;20033;-69
2020/12/02 04:28:02;;;;;;;3.50;1.80;;;;;;;;;;5031933;28;20401;-69
2020/12/02 04:30:28;;;;;;;4.05;1.50;;;;;;;;;;5031703;28;20084;-68
2020/12/02 04:32:54;;;;;;;3.63;1.60;;;;;;;;;;5032625;28;20022;-66
2020/12/02 04:35:20;;;;;;;2.72;1.17;;;;;;;;;;5031071;28;20037;-68
2020/12/02 04:37:46;;;;;;;3.15;1.25;;;;;;;;;;5031269;28;20036;-68
2020/12/02 04:40:14;;;;;;;3.95;1.27;;;;;;;;;;5031494;28;20020;-68
2020/12/02 04:42:41;;;;;;;6.30;1.92;;;;;;;;;;5032054;28;20029;-69
2020/12/02 04:45:10;;;;;;;4.47;1.58;;;;;;;;;;5031504;28;20469;-72
2020/12/02 04:47:40;;;;;;;2.67;1.40;;;;;;;;;;5032375;28;20026;-70
2020/12/02 04:50:13;;;;;;;2.92;1.17;;;;;;;;;;5029415;28;20029;-68
2020/12/02 04:52:40;;;;;;;6.55;1.92;;;;;;;;;;5029930;28;20032;-67
2020/12/02 04:55:06;;;;;;;4.20;1.40;;;;;;;;;;5029510;28;20045;-65
2020/12/02 04:57:32;;;;;;;4.13;1.30;;;;;;;;;;5028679;28;20504;-66
2020/12/02 04:59:58;;;;;;;5.35;1.73;;;;;;;;;;5031181;28;20095;-68
2020/12/02 05:02:26;;;;;;;3.90;1.50;;;;;;;;;;5031758;28;20473;-67
2020/12/02 05:04:59;;;;;;;3.88;1.42;;;;;;;;;;5029839;28;20021;-67
2020/12/02 05:07:26;;;;;;;4.10;1.50;;;;;;;;;;5031060;28;20505;-66
2020/12/02 05:10:00;;;;;;;2.92;1.20;;;;;;;;;;5030957;28;20026;-67
2020/12/02 05:12:31;;;;;;;7.85;2.13;;;;;;;;;;5030251;28;20084;-66
2020/12/02 05:15:34;;;;;;;4.10;1.50;;;;;;;;;;5029608;28;20033;-65
2020/12/02 05:18:21;;;;;;;2.47;1.15;;;;;;;;;;4970719;28;20119;-68
2020/12/02 05:21:20;;;;;;;5.30;1.30;;;;;;;;;;5028992;28;20440;-68
2020/12/02 05:24:04;;;;;;;2.53;1.30;;;;;;;;;;4997844;28;20034;-68
2020/12/02 05:26:31;;;;;;;3.63;1.60;;;;;;;;;;5030291;28;20491;-69
2020/12/02 05:28:58;;;;;;;2.60;1.00;;;;;;;;;;5030865;28;20465;-69
2020/12/02 05:31:26;;;;;;;3.17;1.50;;;;;;;;;;5030514;28;20049;-69
2020/12/02 05:33:52;;;;;;;3.20;1.40;;;;;;;;;;5031392;28;20108;-67
2020/12/02 05:36:24;;;;;;;5.18;1.35;;;;;;;;;;5030436;28;20087;-67
2020/12/02 05:38:50;;;;;;;2.22;0.93;;;;;;;;;;5031131;28;20462;-67
2020/12/02 05:41:18;;;;;;;3.03;1.10;;;;;;;;;;5030966;28;20029;-66
2020/12/02 05:43:56;;;;;;;3.10;1.55;;;;;;;;;;5031413;28;20481;-66
2020/12/02 05:46:25;;;;;;;5.85;1.33;;;;;;;;;;5031233;28;20025;-62
2020/12/02 05:48:59;;;;;;;2.95;1.60;;;;;;;;;;5030197;28;20041;-62
2020/12/02 05:51:25;;;;;;;4.00;1.50;;;;;;;;;;5029892;28;20076;-64
2020/12/02 05:53:54;;;;;;;3.75;1.52;;;;;;;;;;5028761;28;20037;-65
2020/12/02 05:56:20;;;;;;;4.50;1.77;;;;;;;;;;5031045;28;20452;-65
2020/12/02 05:58:46;;;;;;;6.45;1.73;;;;;;;;;;5029467;28;20041;-65
2020/12/02 06:01:22;;;;;;;8.77;2.65;;;;;;;;;;5030657;28;20045;-64
2020/12/02 06:03:51;;;;;;;4.53;1.90;;;;;;;;;;5029769;28;20032;-64
2020/12/02 06:06:17;;;;;;;6.40;2.53;;;;;;;;;;5030607;28;20033;-65
2020/12/02 06:08:46;;;;;;;5.25;2.38;;;;;;;;;;5030243;28;20049;-67
2020/12/02 06:11:12;;;;;;;;;;;;;;;;;;5030429;28;20397;-67
2020/12/02 06:13:40;;;;;;;4.28;1.75;;;;;;;;;;5031026;28;19905;-67
2020/12/02 06:16:06;;;;;;;6.47;1.90;;;;;;;;;;5030663;28;20035;-69
2020/12/02 06:18:33;;;;;;;5.72;1.75;;;;;;;;;;5030317;28;20084;-69
2020/12/02 06:20:59;;;;;;;5.57;2.17;;;;;;;;;;5031371;28;20492;-68
2020/12/02 06:23:55;;;;;;;4.00;1.60;;;;;;;;;;5033248;28;20056;-69
2020/12/02 06:26:37;;;;;;;5.72;1.58;;;;;;;;;;5029456;28;20374;-70
2020/12/02 06:29:04;;;;;;;3.92;1.52;;;;;;;;;;5034007;28;20128;-69
2020/12/02 06:31:31;;;;;;;5.68;1.95;;;;;;;;;;5033988;28;20096;-70
2020/12/02 06:33:58;;;;;;;3.13;1.45;;;;;;;;;;5033792;28;20040;-66
2020/12/02 06:36:27;;;;;;;6.00;1.77;;;;;;;;;;5034441;28;20112;-65
2020/12/02 06:39:09;;;;;;;4.10;1.70;;;;;;;;;;5033946;28;20025;-66
2020/12/02 06:41:39;;;;;;;4.90;1.77;;;;;;;;;;5034232;28;20084;-69
2020/12/02 06:44:14;;;;;;;3.42;1.35;;;;;;;;;;5033031;28;20021;-66
2020/12/02 06:46:55;;;;;;;4.18;1.20;;;;;;;;;;5031806;28;20022;-66
2020/12/02 06:49:32;;;;;;;7.35;2.15;;;;;;;;;;5033465;28;20036;-67
2020/12/02 06:52:00;;;;;;;4.45;1.60;;;;;;;;;;5033870;28;20030;-66
2020/12/02 06:54:29;;;;;;;4.72;1.30;;;;;;;;;;5032865;28;20032;-67
2020/12/02 06:56:58;;;;;;;4.75;1.85;;;;;;;;;;5033680;28;20044;-67
2020/12/02 06:59:24;;;;;;;;;;;;;;;;;;5033221;28;20036;-67
2020/12/02 07:01:50;;;;;;;5.82;1.70;;;;;;;;;;5033177;28;19909;-64
2020/12/02 07:04:20;;;;;;;3.90;1.67;;;;;;;;;;5033442;28;20087;-64
2020/12/02 07:06:56;;;;;;;3.83;1.45;;;;;;;;;;5031642;28;20033;-68
2020/12/02 07:09:22;;;;;;;3.92;1.73;;;;;;;;;;5030827;28;20022;-67
2020/12/02 07:11:53;;;;;;;2.78;1.17;;;;;;;;;;5030671;28;20079;-66
2020/12/02 07:14:21;;;;;;;4.13;1.30;;;;;;;;;;5029400;28;20663;-65
2020/12/02 07:16:47;;;;;;;3.10;1.55;;;;;;;;;;5031753;28;20405;-65
2020/12/02 07:19:15;;;;;;;5.22;1.52;;;;;;;;;;5031271;28;20485;-63
2020/12/02 07:21:44;;;;;;;5.20;1.10;;;;;;;;;;5030753;28;20492;-63
2020/12/02 07:24:18;;;;;;;6.82;1.25;;;;;;;;;;5030561;28;20030;-64
2020/12/02 07:26:44;;;;;;;6.88;1.50;;;;;;;;;;5031707;28;20112;-63
2020/12/02 07:29:15;;;;;;;3.17;1.00;;;;;;;;;;5032852;28;20028;-62
2020/12/02 07:31:41;;;;;;;5.32;0.80;;;;;;;;;;5032444;28;20131;-63
2020/12/02 07:34:12;;;;;;;2.97;1.20;;;;;;;;;;5032891;28;20021;-62
2020/12/02 07:36:38;;;;;;;3.10;0.75;;;;;;;;;;5031326;28;20047;-62
2020/12/02 07:39:09;;;;;;;2.00;0.70;;;;;;;;;;5030611;28;20097;-64
2020/12/02 07:41:35;;;;;;;1.85;0.50;;;;;;;;;;5030632;28;20106;-64
2020/12/02 07:44:02;;;;;;;1.52;0.60;;;;;;;;;;5032261;28;20096;-63
2020/12/02 07:46:30;;;;;;;2.15;0.70;;;;;;;;;;5032804;28;20060;-63
2020/12/02 07:48:58;;;;;;;3.97;0.70;;;;;;;;;;5031254;28;20040;-62
2020/12/02 07:51:26;;;;;;;2.80;0.68;;;;;;;;;;5031413;28;20029;-62
2020/12/02 07:53:55;;;;;;;1.73;0.43;;;;;;;;;;5030168;28;20087;-63
2020/12/02 07:56:26;;;;;;;1.65;0.60;;;;;;;;;;5030972;28;20111;-63
2020/12/02 07:58:54;;;;;;;1.15;0.50;;;;;;;;;;5030892;28;20092;-65
2020/12/02 08:01:35;;;;;;;1.20;0.38;;;;;;;;;;5014938;28;20669;-64
2020/12/02 08:04:23;;;;;;;1.50;0.50;;;;;;;;;;4994084;28;20057;-63
2020/12/02 08:06:59;;;;;;;2.17;0.43;;;;;;;;;;5011823;28;20026;-63
2020/12/02 08:09:25;;;;;;;3.40;0.50;;;;;;;;;;4994583;28;20034;-62
2020/12/02 08:12:02;;;;;;;2.65;0.57;;;;;;;;;;5011030;28;20064;-63
2020/12/02 08:14:31;;;;;;;2.00;0.73;;;;;;;;;;4993795;28;20036;-62
2020/12/02 08:17:01;;;;;;;3.65;0.57;;;;;;;;;;5011309;28;20061;-63
2020/12/02 08:19:32;;;;;;;4.32;0.50;;;;;;;;;;5010948;28;20359;-62
2020/12/02 08:21:59;;;;;;;1.90;0.50;;;;;;;;;;5011365;28;20454;-63
2020/12/02 08:24:38;;;;;;;2.42;0.47;;;;;;;;;;5011509;28;20026;-65
2020/12/02 08:27:04;;;;;;;2.70;0.43;;;;;;;;;;5011056;28;20485;-64
2020/12/02 08:29:31;;;;;;;4.70;0.77;;;;;;;;;;4993739;28;20022;-63
2020/12/02 08:32:03;;;;;;;3.50;0.70;;;;;;;;;;4994151;28;20125;-64
2020/12/02 08:34:30;;;;;;;1.70;0.30;;;;;;;;;;5012652;28;20056;-64
2020/12/02 08:37:11;;;;;;;3.17;0.68;;;;;;;;;;5012429;28;20050;-64
2020/12/02 08:39:42;;;;;;;4.03;0.70;;;;;;;;;;5012453;28;20052;-65
2020/12/02 08:42:30;;;;;;;4.03;0.70;;;;;;;;;;4994922;28;20022;-64
2020/12/02 08:45:05;;;;;;;2.20;0.82;;;;;;;;;;5011719;28;20436;-64
2020/12/02 08:47:31;;;;;;;1.98;0.68;;;;;;;;;;5010197;28;20048;-63
2020/12/02 08:49:57;;;;;;;3.80;0.57;;;;;;;;;;5009622;28;20112;-64
2020/12/02 08:52:23;;;;;;;2.85;0.90;;;;;;;;;;5010882;28;20030;-64
2020/12/02 08:54:49;;;;;;;2.92;0.45;;;;;;;;;;5010497;28;20035;-67
2020/12/02 08:57:15;;;;;;;5.65;0.50;;;;;;;;;;4994234;28;20034;-65
2020/12/02 08:59:41;;;;;;;5.93;0.57;;;;;;;;;;5010403;28;20022;-64
2020/12/02 09:02:12;;;;;;;2.65;0.43;;;;;;;;;;5010833;28;20105;-65
2020/12/02 09:04:38;;;;;;;5.07;0.57;;;;;;;;;;5010589;28;20018;-66
2020/12/02 09:07:04;;;;;;;4.03;0.98;;;;;;;;;;5011162;28;20022;-65
2020/12/02 09:09:30;;;;;;;4.70;0.80;;;;;;;;;;4993277;28;20117;-64
2020/12/02 09:11:56;;;;;;;1.08;0.40;;;;;;;;;;5012117;28;20026;-64
2020/12/02 09:14:22;;;;;;;2.50;0.30;;;;;;;;;;5012350;28;20466;-65
2020/12/02 09:16:48;;;;;;;1.92;0.40;;;;;;;;;;5012458;28;20125;-67
2020/12/02 09:19:16;;;;;;;1.40;0.40;;;;;;;;;;5011671;28;20026;-66
2020/12/02 09:21:43;;;;;;;1.10;0.73;;;;;;;;;;5012162;28;20033;-65
2020/12/02 09:24:09;;;;;;;4.97;1.30;;;;;;;;;;4994853;28;20026;-64
2020/12/02 09:26:35;;;;;;;5.45;1.00;;;;;;;;;;5012239;28;20026;-63
2020/12/02 09:29:06;;;;;;;4.47;0.50;;;;;;;;;;5012210;28;20029;-64
2020/12/02 09:31:32;;;;;;;4.60;0.82;;;;;;;;;;4978499;28;20033;-64
2020/12/02 09:33:59;;;;;;;2.08;0.55;;;;;;;;;;5011461;28;20022;-65
2020/12/02 09:36:25;;;;;;;5.30;0.98;;;;;;;;;;5011933;28;20049;-63
2020/12/02 09:38:52;;;;;;;2.42;0.47;;;;;;;;;;5011501;28;20064;-61
2020/12/02 09:41:37;;;;;;;6.80;1.30;;;;;;;;;;5009788;28;20072;-64
2020/12/02 09:44:03;;;;;;;3.50;0.63;;;;;;;;;;5011593;28;20092;-64
2020/12/02 09:46:30;;;;;;;3.47;0.63;;;;;;;;;;5011659;28;20021;-61
2020/12/02 09:48:56;;;;;;;3.05;0.95;;;;;;;;;;5011175;28;20049;-65
2020/12/02 09:51:27;;;;;;;4.32;1.40;;;;;;;;;;4994353;28;20076;-62
2020/12/02 09:53:55;;;;;;;4.32;0.98;;;;;;;;;;5011963;28;20042;-63
2020/12/02 09:56:21;;;;;;;2.72;0.90;;;;;;;;;;5011518;28;20038;-63
2020/12/02 09:58:47;;;;;;;3.38;0.60;;;;;;;;;;5014947;28;20378;-63
2020/12/02 10:01:18;;;;;;;4.10;0.82;;;;;;;;;;5027733;28;20146;-62
2020/12/02 10:03:50;;;;;;;2.67;0.68;;;;;;;;;;5031222;28;20422;-63
2020/12/02 10:06:39;;;;;;;6.28;1.10;;;;;;;;;;5032867;28;20041;-66
2020/12/02 10:09:05;;;;;;;3.38;0.88;;;;;;;;;;5013604;28;20057;-63
2020/12/02 10:11:50;;;;;;;1.30;0.40;;;;;;;;;;5031866;28;20033;-65
2020/12/02 10:14:24;;;;;;;3.15;0.60;;;;;;;;;;5033196;28;20438;-63
2020/12/02 10:17:02;;;;;;;7.57;0.80;;;;;;;;;;5033010;28;20033;-62
2020/12/02 10:19:28;;;;;;;3.83;1.40;;;;;;;;;;5035120;28;20026;-62
2020/12/02 10:22:06;;;;;;;4.15;0.70;;;;;;;;;;5035040;28;20105;-61
2020/12/02 10:24:32;;;;;;;3.17;0.60;;;;;;;;;;5034832;28;20022;-61
2020/12/02 10:26:58;;;;;;;5.25;0.70;;;;;;;;;;5035065;28;20021;-61
2020/12/02 10:29:40;;;;;;;11.48;2.58;;;;;;;;;;5034931;28;20025;-61
2020/12/02 10:32:06;;;;;;;3.17;0.60;;;;;;;;;;5034487;28;20037;-61
2020/12/02 10:34:34;;;;;;;11.23;1.98;;;;;;;;;;5034953;28;20037;-62
2020/12/02 10:37:07;;;;;;;7.70;1.80;;;;;;;;;;5034776;28;20073;-61
2020/12/02 10:39:33;;;;;;;7.28;1.45;;;;;;;;;;5034814;28;20515;-62
2020/12/02 10:41:59;;;;;;;2.30;0.63;;;;;;;;;;5034686;28;20025;-62
2020/12/02 10:44:28;;;;;;;7.68;1.63;;;;;;;;;;5034695;28;20424;-62
2020/12/02 10:47:17;;;;;;;9.38;0.70;;;;;;;;;;5034008;28;20025;-62
2020/12/02 10:49:44;;;;;;;5.30;0.52;;;;;;;;;;5033491;28;20026;-63
2020/12/02 10:52:12;;;;;;;1.63;0.40;;;;;;;;;;5033321;28;20598;-62
2020/12/02 10:54:38;;;;;;;8.53;0.60;;;;;;;;;;5033024;28;20103;-62
2020/12/02 10:57:13;;;;;;;8.23;0.68;;;;;;;;;;5034149;28;20269;-63
2020/12/02 10:59:40;;;;;;;3.67;0.50;;;;;;;;;;5033061;28;20029;-62
2020/12/02 11:02:11;;;;;;;5.05;0.50;;;;;;;;;;5034389;28;20056;-62
2020/12/02 11:04:37;;;;;;;2.72;0.38;;;;;;;;;;5033054;28;20033;-62
2020/12/02 11:07:16;;;;;;;2.97;0.60;;;;;;;;;;5034316;28;20095;-62
2020/12/02 11:10:02;;;;;;;1.90;0.50;;;;;;;;;;5034137;28;20040;-62
2020/12/02 11:12:37;;;;;;;3.55;0.52;;;;;;;;;;5034253;28;20032;-63
2020/12/02 11:15:17;;;;;;;4.20;0.45;;;;;;;;;;5033887;28;20029;-61
2020/12/02 11:17:49;;;;;;;1.17;0.40;;;;;;;;;;5034251;28;20053;-62
2020/12/02 11:20:18;;;;;;;4.00;0.57;;;;;;;;;;5034106;28;20472;-61
2020/12/02 11:22:45;;;;;;;3.63;0.60;;;;;;;;;;5034042;28;20030;-62
2020/12/02 11:25:17;;;;;;;4.55;0.43;;;;;;;;;;5034058;28;20109;-62
2020/12/02 11:27:44;;;;;;;3.28;0.63;;;;;;;;;;5034178;28;20428;-61
2020/12/02 11:30:16;;;;;;;2.42;0.40;;;;;;;;;;5033819;28;20099;-62
2020/12/02 11:32:54;;;;;;;3.70;0.52;;;;;;;;;;5033845;28;20515;-62
2020/12/02 11:35:31;;;;;;;4.13;0.85;;;;;;;;;;5033509;28;20367;-60
2020/12/02 11:38:02;;;;;;;0.88;0.30;;;;;;;;;;5033738;28;20543;-61
2020/12/02 11:40:34;;;;;;;2.03;0.55;;;;;;;;;;5033548;28;20029;-61
2020/12/02 11:43:00;;;;;;;5.72;0.70;;;;;;;;;;5033446;28;20052;-61
2020/12/02 11:45:33;;;;;;;2.17;0.50;;;;;;;;;;5033384;28;20033;-61
2020/12/02 11:48:09;;;;;;;3.50;0.47;;;;;;;;;;5033499;28;20030;-62
2020/12/02 11:50:49;;;;;;;3.97;1.52;;;;;;;;;;5033392;28;20029;-62
2020/12/02 11:53:38;;;;;;;2.25;0.43;;;;;;;;;;5032000;28;20088;-62
2020/12/02 11:56:05;;;;;;;3.13;0.43;;;;;;;;;;5032354;28;20041;-62
2020/12/02 11:58:31;;;;;;;4.82;0.57;;;;;;;;;;5030909;28;20120;-61
2020/12/02 12:01:04;;;;;;;1.80;0.50;;;;;;;;;;5030956;28;20053;-63
2020/12/02 12:03:36;;;;;;;3.70;0.60;;;;;;;;;;5031128;28;20049;-62
2020/12/02 12:06:07;;;;;;;3.05;0.30;;;;;;;;;;5031538;28;20018;-62
2020/12/02 12:08:45;;;;;;;4.35;0.63;;;;;;;;;;5031033;28;20021;-61
2020/12/02 12:11:32;;;;;;;4.25;0.90;;;;;;;;;;5031416;28;20033;-61
2020/12/02 12:14:05;;;;;;;2.90;0.57;;;;;;;;;;5032627;28;20036;-61
2020/12/02 12:16:32;;;;;;;2.22;0.60;;;;;;;;;;5032740;28;20393;-62
2020/12/02 12:19:07;;;;;;;4.55;0.75;;;;;;;;;;5032750;28;20021;-61
2020/12/02 12:21:36;;;;;;;7.20;1.20;;;;;;;;;;5031834;28;20198;-62
2020/12/02 12:24:04;;;;;;;2.03;0.30;;;;;;;;;;5032028;28;20033;-62
2020/12/02 12:26:36;;;;;;;1.58;0.30;;;;;;;;;;5031855;28;20109;-62
2020/12/02 12:29:03;;;;;;;12.75;1.40;;;;;;;;;;5031157;28;20037;-62
2020/12/02 12:31:35;;;;;;;2.25;0.30;;;;;;;;;;5032602;28;20541;-62
2020/12/02 12:34:18;;;;;;;2.80;0.70;;;;;;;;;;5032393;28;20025;-62
2020/12/02 12:36:46;;;;;;;5.18;0.70;;;;;;;;;;5032663;28;20528;-62
2020/12/02 12:39:12;;;;;;;7.40;0.80;;;;;;;;;;5031930;28;20477;-62
2020/12/02 12:41:38;;;;;;;2.58;0.52;;;;;;;;;;5032116;28;20040;-62
2020/12/02 12:44:11;;;;;;;71.88;6.85;;;;;;;;;;5031282;28;20113;-62
2020/12/02 12:47:03;;;;;;;4.40;0.88;;;;;;;;;;5028508;28;20481;-62
2020/12/02 12:49:30;;;;;;;15.95;2.28;;;;;;;;;;5021272;28;20029;-62
2020/12/02 12:51:57;;;;;;;5.55;0.57;;;;;;;;;;5029879;28;20025;-62
2020/12/02 12:54:24;;;;;;;3.42;0.40;;;;;;;;;;5029500;28;20110;-62
2020/12/02 12:56:51;;;;;;;3.05;0.82;;;;;;;;;;5024584;28;20466;-62
2020/12/02 12:59:18;;;;;;;4.55;0.50;;;;;;;;;;5029354;28;20027;-61
2020/12/02 13:01:48;;;;;;;1.08;0.43;;;;;;;;;;5013526;28;20058;-61
2020/12/02 13:04:15;;;;;;;2.03;0.50;;;;;;;;;;5011024;28;20029;-61
2020/12/02 13:06:48;;;;;;;2.13;0.40;;;;;;;;;;5008418;28;20041;-65
2020/12/02 13:09:14;;;;;;;4.32;0.70;;;;;;;;;;5001636;28;20061;-65
2020/12/02 13:11:46;;;;;;;3.95;0.60;;;;;;;;;;5010589;28;20029;-64
2020/12/02 13:14:39;;;;;;;1.23;0.35;;;;;;;;;;5009271;28;20045;-64
2020/12/02 13:17:09;;;;;;;3.38;0.95;;;;;;;;;;5008644;28;20046;-63
2020/12/02 13:19:54;;;;;;;3.78;0.68;;;;;;;;;;5012125;28;20077;-63
2020/12/02 13:22:27;;;;;;;6.65;1.00;;;;;;;;;;5012013;28;20501;-65
2020/12/02 13:25:16;;;;;;;3.88;0.47;;;;;;;;;;5009850;28;20092;-63
2020/12/02 13:27:45;;;;;;;5.57;0.82;;;;;;;;;;5007716;28;20044;-61
2020/12/02 13:30:23;;;;;;;3.03;0.32;;;;;;;;;;5011478;28;20025;-62
2020/12/02 13:32:52;;;;;;;3.58;0.60;;;;;;;;;;5012156;28;20025;-61
2020/12/02 13:35:18;;;;;;;4.90;1.27;;;;;;;;;;5014574;28;20049;-61
2020/12/02 13:37:44;;;;;;;5.63;0.70;;;;;;;;;;5015562;28;20462;-60
2020/12/02 13:40:11;;;;;;;4.47;0.75;;;;;;;;;;5015656;28;20109;-60
2020/12/02 13:42:38;;;;;;;2.28;0.80;;;;;;;;;;5014806;28;20080;-60
2020/12/02 13:45:13;;;;;;;1.52;0.47;;;;;;;;;;5014892;28;20374;-61
2020/12/02 13:47:43;;;;;;;13.80;3.17;;;;;;;;;;5014959;28;20100;-61
2020/12/02 13:50:13;;;;;;;3.10;0.75;;;;;;;;;;5014564;28;20101;-61
2020/12/02 13:52:41;;;;;;;5.68;1.65;;;;;;;;;;5014751;28;20116;-66
2020/12/02 13:55:16;;;;;;;13.60;3.83;;;;;;;;;;5015476;28;20092;-61
2020/12/02 13:57:42;;;;;;;5.38;1.23;;;;;;;;;;5015635;28;20113;-61
2020/12/02 14:00:41;;;;;;;4.93;0.95;;;;;;;;;;5019084;28;20767;-61
2020/12/02 14:03:10;;;;;;;5.25;0.77;;;;;;;;;;5011780;28;20048;-61
2020/12/02 14:05:51;;;;;;;2.35;0.60;;;;;;;;;;5033785;28;20036;-61
2020/12/02 14:08:17;;;;;;;2.58;0.68;;;;;;;;;;5034601;28;20088;-60
2020/12/02 14:10:44;;;;;;;2.28;0.63;;;;;;;;;;5033582;28;20469;-61
2020/12/02 14:13:10;;;;;;;1.33;0.35;;;;;;;;;;5034585;28;20025;-61
2020/12/02 14:15:39;;;;;;;5.47;1.23;;;;;;;;;;5034988;28;20037;-62
2020/12/02 14:18:05;;;;;;;4.40;0.90;;;;;;;;;;5034951;28;20116;-62
2020/12/02 14:20:35;;;;;;;2.53;1.05;;;;;;;;;;5033740;28;20052;-62
2020/12/02 14:23:01;;;;;;;3.78;0.60;;;;;;;;;;5034869;28;20032;-61
2020/12/02 14:25:27;;;;;;;3.53;0.60;;;;;;;;;;5035067;28;20032;-61
2020/12/02 14:27:55;;;;;;;3.42;0.70;;;;;;;;;;5033204;28;20021;-60
2020/12/02 14:30:25;;;;;;;4.63;1.05;;;;;;;;;;5035014;28;20029;-61
2020/12/02 14:32:52;;;;;;;7.43;1.75;;;;;;;;;;5035049;28;20053;-62
2020/12/02 14:35:19;;;;;;;7.43;0.93;;;;;;;;;;5034689;28;20124;-61
2020/12/02 14:37:45;;;;;;;3.60;1.00;;;;;;;;;;5035004;28;20082;-61
2020/12/02 14:40:12;;;;;;;1.38;0.60;;;;;;;;;;5034588;28;20025;-60
2020/12/02 14:42:39;;;;;;;2.00;0.60;;;;;;;;;;5033734;28;20041;-62
2020/12/02 14:45:07;;;;;;;5.18;1.83;;;;;;;;;;5030742;28;20029;-61
2020/12/02 14:47:33;;;;;;;7.30;0.82;;;;;;;;;;5030230;28;20032;-62
2020/12/02 14:49:59;;;;;;;6.88;0.60;;;;;;;;;;5033360;28;20478;-62
2020/12/02 14:52:25;;;;;;;3.58;0.50;;;;;;;;;;5032590;28;20549;-60
2020/12/02 14:54:51;;;;;;;2.35;0.30;;;;;;;;;;5033751;28;20025;-63
2020/12/02 14:57:27;;;;;;;4.32;0.95;;;;;;;;;;5034080;28;20053;-64
2020/12/02 15:00:08;;;;;;;4.30;0.75;;;;;;;;;;5031996;28;20132;-63
2020/12/02 15:02:34;;;;;;;3.15;0.45;;;;;;;;;;5032952;28;20018;-63